createdAt,value
2022-12-18T00:01:32.159Z,20.60
2022-12-18T00:03:58.884Z,21.15
2022-12-18T00:06:26.005Z,22.85
2022-12-18T00:08:52.450Z,21.90
2022-12-18T00:11:20.479Z,21.83
2022-12-18T00:13:47.256Z,21.38
2022-12-18T00:16:15.263Z,21.27
2022-12-18T00:18:41.975Z,20.38
2022-12-18T00:21:09.893Z,20.88
2022-12-18T00:23:37.681Z,21.90
2022-12-18T00:26:05.553Z,20.63
2022-12-18T00:28:32.200Z,21.58
2022-12-18T00:31:02.210Z,20.20
2022-12-18T00:33:29.016Z,21.15
2022-12-18T00:35:55.325Z,20.70
2022-12-18T00:38:21.739Z,19.45
2022-12-18T00:40:48.018Z,21.45
2022-12-18T00:43:14.590Z,21.63
2022-12-18T00:45:42.124Z,20.25
2022-12-18T00:48:08.532Z,23.02
2022-12-18T00:50:35.355Z,22.75
2022-12-18T00:53:01.623Z,22.88
2022-12-18T00:55:27.872Z,22.73
2022-12-18T00:57:54.264Z,22.05
2022-12-18T01:00:20.671Z,21.30
2022-12-18T01:02:47.238Z,23.40
2022-12-18T01:05:13.793Z,23.35
2022-12-18T01:07:40.305Z,22.15
2022-12-18T01:10:07.353Z,23.02
2022-12-18T01:12:33.800Z,23.88
2022-12-18T01:15:00.130Z,22.67
2022-12-18T01:17:26.389Z,20.88
2022-12-18T01:19:52.678Z,21.40
2022-12-18T01:22:19.111Z,21.95
2022-12-18T01:24:45.538Z,20.52
2022-12-18T01:27:11.820Z,22.52
2022-12-18T01:29:38.120Z,21.33
2022-12-18T01:32:04.672Z,23.30
2022-12-18T01:34:31.054Z,20.63
2022-12-18T01:36:57.483Z,22.50
2022-12-18T01:39:23.947Z,22.70
2022-12-18T01:42:02.587Z,23.77
2022-12-18T01:44:47.878Z,22.37
2022-12-18T01:47:26.484Z,22.38
2022-12-18T01:49:53.535Z,20.15
2022-12-18T01:52:21.204Z,21.48
2022-12-18T01:54:48.367Z,21.80
2022-12-18T01:57:14.763Z,21.57
2022-12-18T01:59:42.158Z,20.20
2022-12-18T02:02:09.005Z,22.65
2022-12-18T02:04:35.436Z,22.27
2022-12-18T02:07:09.954Z,20.00
2022-12-18T02:09:47.419Z,21.83
2022-12-18T02:12:25.400Z,20.20
2022-12-18T02:15:03.854Z,21.33
2022-12-18T02:17:42.872Z,21.85
2022-12-18T02:20:09.297Z,22.40
2022-12-18T02:22:54.197Z,20.87
2022-12-18T02:25:32.775Z,20.77
2022-12-18T02:28:01.257Z,20.77
2022-12-18T02:30:30.287Z,21.23
2022-12-18T02:32:57.209Z,22.58
2022-12-18T02:35:25.542Z,21.95
2022-12-18T02:37:51.885Z,22.83
2022-12-18T02:40:19.388Z,20.73
2022-12-18T02:42:45.657Z,21.58
2022-12-18T02:45:12.168Z,21.00
2022-12-18T02:47:39.927Z,22.33
2022-12-18T02:50:17.321Z,24.35
2022-12-18T02:53:02.339Z,23.25
2022-12-18T02:55:28.698Z,21.20
2022-12-18T02:57:57.037Z,20.30
2022-12-18T03:00:39.568Z,23.33
2022-12-18T03:03:15.183Z,20.10
2022-12-18T03:08:13.639Z,20.50
2022-12-18T03:10:44.536Z,20.83
2022-12-18T03:13:14.570Z,21.60
2022-12-18T03:15:46.506Z,19.10
2022-12-18T03:18:18.469Z,20.42
2022-12-18T03:20:45.553Z,20.27
2022-12-18T03:23:13.999Z,22.42
2022-12-18T03:25:41.860Z,20.45
2022-12-18T03:28:10.861Z,20.45
2022-12-18T03:30:38.737Z,19.95
2022-12-18T03:33:20.631Z,20.15
2022-12-18T03:35:47.052Z,20.52
2022-12-18T03:38:13.982Z,20.02
2022-12-18T03:40:40.790Z,21.00
2022-12-18T03:43:11.969Z,18.67
2022-12-18T03:45:45.817Z,18.17
2022-12-18T03:48:19.761Z,18.50
2022-12-18T03:50:46.145Z,20.25
2022-12-18T03:53:12.454Z,17.83
2022-12-18T03:55:39.265Z,18.55
2022-12-18T03:58:07.876Z,18.80
2022-12-18T04:00:34.841Z,18.47
2022-12-18T04:03:01.787Z,19.60
2022-12-18T04:05:29.232Z,18.88
2022-12-18T04:07:55.894Z,18.08
2022-12-18T04:10:22.273Z,17.92
2022-12-18T04:12:48.792Z,18.35
2022-12-18T04:15:15.466Z,15.68
2022-12-18T04:17:47.588Z,17.35
2022-12-18T04:20:13.928Z,16.13
2022-12-18T04:22:40.219Z,16.57
2022-12-18T04:25:07.780Z,17.05
2022-12-18T04:27:34.159Z,15.80
2022-12-18T04:30:00.426Z,16.23
2022-12-18T04:32:26.891Z,14.80
2022-12-18T04:34:53.470Z,15.30
2022-12-18T04:37:19.742Z,16.13
2022-12-18T04:39:46.028Z,16.13
2022-12-18T04:42:12.743Z,14.15
2022-12-18T04:44:39.107Z,14.13
2022-12-18T04:47:05.376Z,14.88
2022-12-18T04:49:31.665Z,15.32
2022-12-18T04:51:57.916Z,15.10
2022-12-18T04:54:24.213Z,15.25
2022-12-18T04:56:50.638Z,14.23
2022-12-18T04:59:16.966Z,13.60
2022-12-18T05:01:44.037Z,14.20
2022-12-18T05:04:11.050Z,13.13
2022-12-18T05:06:37.458Z,14.87
2022-12-18T05:09:04.173Z,14.75
2022-12-18T05:11:30.483Z,13.33
2022-12-18T05:13:56.902Z,14.00
2022-12-18T05:16:23.277Z,13.90
2022-12-18T05:18:49.764Z,12.85
2022-12-18T05:21:16.134Z,13.85
2022-12-18T05:23:43.029Z,13.57
2022-12-18T05:26:09.830Z,12.15
2022-12-18T05:28:36.623Z,11.60
2022-12-18T05:31:03.915Z,12.47
2022-12-18T05:33:31.345Z,12.13
2022-12-18T05:35:58.862Z,12.27
2022-12-18T05:38:25.749Z,11.90
2022-12-18T05:40:52.371Z,11.53
2022-12-18T05:43:21.522Z,11.67
2022-12-18T05:45:48.519Z,13.07
2022-12-18T05:48:15.120Z,12.40
2022-12-18T05:50:42.714Z,11.83
2022-12-18T05:53:09.241Z,11.73
2022-12-18T05:55:36.077Z,10.53
2022-12-18T05:58:02.832Z,13.07
2022-12-18T06:00:29.296Z,11.90
2022-12-18T06:02:55.770Z,13.30
2022-12-18T06:05:22.284Z,12.80
2022-12-18T06:07:48.617Z,11.60
2022-12-18T06:10:14.972Z,11.70
2022-12-18T06:12:41.988Z,13.07
2022-12-18T06:15:08.724Z,13.73
2022-12-18T06:17:35.330Z,12.60
2022-12-18T06:20:02.241Z,12.57
2022-12-18T06:22:28.572Z,10.83
2022-12-18T06:24:57.027Z,12.10
2022-12-18T06:27:23.770Z,11.80
2022-12-18T06:29:50.123Z,12.50
2022-12-18T06:32:16.426Z,11.07
2022-12-18T06:34:43.701Z,12.20
2022-12-18T06:37:10.022Z,12.83
2022-12-18T06:39:36.421Z,12.23
2022-12-18T06:42:02.749Z,12.23
2022-12-18T06:44:29.070Z,10.80
2022-12-18T06:46:55.680Z,12.03
2022-12-18T06:49:24.152Z,12.67
2022-12-18T06:51:53.747Z,12.43
2022-12-18T06:54:20.028Z,12.07
2022-12-18T06:56:46.799Z,12.60
2022-12-18T06:59:13.804Z,12.33
2022-12-18T07:01:40.246Z,12.80
2022-12-18T07:04:07.067Z,11.90
2022-12-18T07:06:33.377Z,12.30
2022-12-18T07:08:59.695Z,12.03
2022-12-18T07:11:26.052Z,12.47
2022-12-18T07:13:53.106Z,11.47
2022-12-18T07:16:24.705Z,11.20
2022-12-18T07:18:51.496Z,12.73
2022-12-18T07:21:19.315Z,11.80
2022-12-18T07:23:48.644Z,11.90
2022-12-18T07:26:16.136Z,12.13
2022-12-18T07:28:42.950Z,11.93
2022-12-18T07:31:13.825Z,12.37
2022-12-18T07:33:40.485Z,11.37
2022-12-18T07:36:08.172Z,12.48
2022-12-18T07:38:35.189Z,11.93
2022-12-18T07:41:06.723Z,11.07
2022-12-18T07:43:33.300Z,10.50
2022-12-18T07:45:59.624Z,11.47
2022-12-18T07:48:25.925Z,11.13
2022-12-18T07:50:52.456Z,12.10
2022-12-18T07:53:18.796Z,11.90
2022-12-18T07:56:17.947Z,10.30
2022-12-18T07:58:31.597Z,11.50
2022-12-18T08:01:08.314Z,10.83
2022-12-18T08:03:34.704Z,10.60
2022-12-18T08:06:01.712Z,10.67
2022-12-18T08:08:28.388Z,11.37
2022-12-18T08:10:54.700Z,10.60
2022-12-18T08:13:20.972Z,11.67
2022-12-18T08:15:47.500Z,11.07
2022-12-18T08:18:14.522Z,11.13
2022-12-18T08:20:42.805Z,10.10
2022-12-18T08:23:09.140Z,11.30
2022-12-18T08:25:35.522Z,10.90
2022-12-18T08:28:01.826Z,10.87
2022-12-18T08:30:28.292Z,11.20
2022-12-18T08:32:55.061Z,11.00
2022-12-18T08:35:21.819Z,10.88
2022-12-18T08:37:48.112Z,11.05
2022-12-18T08:40:14.377Z,12.23
2022-12-18T08:42:59.641Z,11.03
2022-12-18T08:45:26.014Z,11.48
2022-12-18T08:47:53.392Z,11.60
2022-12-18T08:50:20.357Z,10.53
2022-12-18T08:52:46.668Z,10.97
2022-12-18T08:55:13.944Z,10.80
2022-12-18T08:57:40.195Z,11.00
2022-12-18T09:00:06.999Z,12.60
2022-12-18T09:02:33.897Z,11.20
2022-12-18T09:05:00.283Z,12.65
2022-12-18T09:07:27.785Z,12.27
2022-12-18T09:09:54.195Z,12.02
2022-12-18T09:12:20.575Z,11.77
2022-12-18T09:14:46.832Z,11.80
2022-12-18T09:17:13.149Z,12.57
2022-12-18T09:19:39.549Z,11.93
2022-12-18T09:22:06.366Z,11.17
2022-12-18T09:24:32.675Z,12.07
2022-12-18T09:26:58.969Z,12.05
2022-12-18T09:29:25.341Z,10.03
2022-12-18T09:31:51.665Z,12.57
2022-12-18T09:34:17.930Z,11.77
2022-12-18T09:36:44.430Z,10.60
2022-12-18T09:39:11.030Z,12.07
2022-12-18T09:41:56.859Z,12.45
2022-12-18T09:44:31.870Z,11.13
2022-12-18T09:46:58.413Z,12.02
2022-12-18T09:49:27.630Z,13.40
2022-12-18T09:51:57.590Z,11.95
2022-12-18T09:54:26.981Z,12.05
2022-12-18T09:56:54.179Z,11.70
2022-12-18T09:59:31.687Z,10.18
2022-12-18T10:01:58.057Z,10.63
2022-12-18T10:04:25.153Z,11.30
2022-12-18T10:07:08.908Z,11.00
2022-12-18T10:09:39.945Z,10.05
2022-12-18T10:12:24.714Z,11.45
2022-12-18T10:15:09.911Z,10.13
2022-12-18T10:17:42.187Z,10.32
2022-12-18T10:20:16.856Z,11.10
2022-12-18T10:22:52.078Z,9.97
2022-12-18T10:25:23.729Z,10.50
2022-12-18T10:27:53.103Z,9.30
2022-12-18T10:30:20.495Z,8.82
2022-12-18T10:32:46.908Z,10.63
2022-12-18T10:35:18.938Z,9.70
2022-12-18T10:38:05.557Z,10.77
2022-12-18T10:40:32.259Z,10.07
2022-12-18T10:43:24.897Z,10.07
2022-12-18T10:46:03.706Z,8.88
2022-12-18T10:48:31.460Z,9.25
2022-12-18T10:51:13.812Z,9.65
2022-12-18T10:53:41.152Z,9.10
2022-12-18T10:56:07.747Z,9.32
2022-12-18T10:58:38.223Z,9.50
2022-12-18T11:01:07.621Z,8.50
2022-12-18T11:03:34.036Z,8.95
2022-12-18T11:06:08.248Z,10.30
2022-12-18T11:08:34.615Z,9.60
2022-12-18T11:11:00.888Z,9.50
2022-12-18T11:13:28.541Z,10.30
2022-12-18T11:15:55.656Z,10.30
2022-12-18T11:18:33.711Z,9.10
2022-12-18T11:21:11.104Z,9.18
2022-12-18T11:23:38.409Z,8.95
2022-12-18T11:26:06.901Z,8.73
2022-12-18T11:28:38.692Z,8.50
2022-12-18T11:31:24.357Z,9.45
2022-12-18T11:34:26.903Z,9.15
2022-12-18T11:36:42.232Z,9.07
2022-12-18T11:39:20.627Z,10.18
2022-12-18T11:42:13.254Z,9.52
2022-12-18T11:44:58.227Z,8.65
2022-12-18T11:47:43.927Z,9.73
2022-12-18T11:50:18.619Z,8.48
2022-12-18T11:52:44.986Z,8.57
2022-12-18T11:55:13.071Z,8.32
2022-12-18T11:57:48.585Z,8.10
2022-12-18T12:00:20.909Z,8.95
2022-12-18T12:03:06.129Z,7.40
2022-12-18T12:05:39.213Z,9.38
2022-12-18T12:08:24.004Z,8.10
2022-12-18T12:10:50.250Z,7.60
2022-12-18T12:13:16.489Z,9.35
2022-12-18T12:16:01.545Z,9.40
2022-12-18T12:18:50.942Z,9.07
2022-12-18T12:21:30.103Z,8.77
2022-12-18T12:24:03.120Z,10.30
2022-12-18T12:26:50.949Z,8.98
2022-12-18T12:29:38.614Z,9.23
2022-12-18T12:32:16.890Z,9.27
2022-12-18T12:35:07.713Z,9.02
2022-12-18T12:37:42.253Z,8.20
2022-12-18T12:40:48.330Z,9.25
2022-12-18T12:43:14.344Z,9.30
2022-12-18T12:45:47.578Z,8.85
2022-12-18T12:48:19.878Z,10.55
2022-12-18T12:50:47.368Z,9.63
2022-12-18T12:53:20.079Z,8.82
2022-12-18T12:55:46.458Z,8.85
2022-12-18T12:58:13.093Z,8.88
2022-12-18T13:00:47.545Z,8.98
2022-12-18T13:03:24.286Z,9.68
2022-12-18T13:05:54.075Z,8.88
2022-12-18T13:08:31.198Z,9.43
2022-12-18T13:11:20.510Z,9.70
2022-12-18T13:13:55.254Z,10.02
2022-12-18T13:16:26.528Z,10.63
2022-12-18T13:18:58.702Z,9.63
2022-12-18T13:21:33.585Z,9.68
2022-12-18T13:24:30.580Z,9.48
2022-12-18T13:26:57.098Z,9.80
2022-12-18T13:29:41.341Z,10.50
2022-12-18T13:32:29.729Z,9.20
2022-12-18T13:35:31.690Z,9.57
2022-12-18T13:37:58.337Z,10.30
2022-12-18T13:40:39.435Z,9.73
2022-12-18T13:43:20.621Z,9.70
2022-12-18T13:45:59.608Z,10.52
2022-12-18T13:48:27.114Z,10.82
2022-12-18T13:50:59.658Z,9.73
2022-12-18T13:53:28.682Z,9.55
2022-12-18T13:55:55.393Z,10.10
2022-12-18T13:58:21.826Z,10.68
2022-12-18T14:00:49.108Z,10.27
2022-12-18T14:03:29.437Z,9.77
2022-12-18T14:06:01.188Z,10.40
2022-12-18T14:08:31.929Z,9.40
2022-12-18T14:10:58.281Z,10.05
2022-12-18T14:13:24.547Z,9.32
2022-12-18T14:15:51.121Z,10.07
2022-12-18T14:18:35.628Z,10.43
2022-12-18T14:21:03.326Z,10.23
2022-12-18T14:23:35.613Z,10.82
2022-12-18T14:26:05.953Z,10.40
2022-12-18T14:28:32.778Z,10.85
2022-12-18T14:30:59.229Z,10.02
2022-12-18T14:33:26.876Z,11.38
2022-12-18T14:35:55.549Z,10.45
2022-12-18T14:38:29.235Z,10.80
2022-12-18T14:41:06.748Z,11.57
2022-12-18T14:43:34.594Z,10.02
2022-12-18T14:46:01.637Z,10.50
2022-12-18T14:48:42.190Z,10.98
2022-12-18T14:51:11.608Z,10.70
2022-12-18T14:53:47.595Z,10.20
2022-12-18T14:56:30.290Z,11.60
2022-12-18T14:58:58.416Z,10.90
2022-12-18T15:01:25.983Z,11.18
2022-12-18T15:03:53.700Z,10.50
2022-12-18T15:06:41.285Z,10.88
2022-12-18T15:09:22.718Z,10.52
2022-12-18T15:11:49.075Z,10.55
2022-12-18T15:14:30.892Z,10.27
2022-12-18T15:16:58.157Z,10.43
2022-12-18T15:19:28.585Z,10.73
2022-12-18T15:21:54.877Z,10.27
2022-12-18T15:24:24.708Z,10.25
2022-12-18T15:26:51.020Z,11.15
2022-12-18T15:29:22.560Z,10.40
2022-12-18T15:32:05.300Z,11.70
2022-12-18T15:34:32.329Z,11.30
2022-12-18T15:36:58.730Z,10.93
2022-12-18T15:39:27.489Z,11.15
2022-12-18T15:42:12.245Z,12.13
2022-12-18T15:44:38.916Z,10.32
2022-12-18T15:47:09.964Z,11.40
2022-12-18T15:49:36.535Z,10.20
2022-12-18T15:52:03.135Z,11.23
2022-12-18T15:54:48.453Z,10.40
2022-12-18T15:57:23.974Z,11.10
2022-12-18T15:59:54.250Z,11.15
2022-12-18T16:02:23.656Z,11.45
2022-12-18T16:04:51.638Z,11.00
2022-12-18T16:07:19.291Z,11.23
2022-12-18T16:09:47.870Z,11.73
2022-12-18T16:12:19.028Z,12.25
2022-12-18T16:14:45.720Z,11.50
2022-12-18T16:17:13.470Z,12.25
2022-12-18T16:19:39.883Z,12.30
2022-12-18T16:22:06.228Z,12.18
2022-12-18T16:24:34.113Z,11.15
2022-12-18T16:27:00.884Z,11.73
2022-12-18T16:29:28.466Z,11.88
2022-12-18T16:31:55.702Z,11.02
2022-12-18T16:34:26.053Z,12.63
2022-12-18T16:36:57.939Z,11.45
2022-12-18T16:39:28.012Z,12.50
2022-12-18T16:41:54.318Z,10.95
2022-12-18T16:44:21.273Z,12.48
2022-12-18T16:46:47.868Z,12.10
2022-12-18T16:49:14.956Z,11.65
2022-12-18T16:51:41.650Z,11.57
2022-12-18T16:54:11.715Z,11.23
2022-12-18T16:56:43.187Z,11.75
2022-12-18T16:59:11.423Z,11.82
2022-12-18T17:01:37.808Z,12.63
2022-12-18T17:04:06.046Z,12.25
2022-12-18T17:06:33.725Z,12.55
2022-12-18T17:09:00.825Z,11.55
2022-12-18T17:11:27.847Z,11.63
2022-12-18T17:13:55.560Z,12.25
2022-12-18T17:16:22.313Z,12.95
2022-12-18T17:18:48.802Z,12.65
2022-12-18T17:21:15.723Z,11.95
2022-12-18T17:23:43.740Z,11.95
2022-12-18T17:26:11.567Z,13.40
2022-12-18T17:28:38.736Z,12.20
2022-12-18T17:31:13.250Z,12.32
2022-12-18T17:33:40.004Z,12.23
2022-12-18T17:36:06.771Z,13.15
2022-12-18T17:38:33.555Z,12.43
2022-12-18T17:41:03.589Z,12.20
2022-12-18T17:43:30.142Z,12.35
2022-12-18T17:45:56.909Z,12.75
2022-12-18T17:48:24.504Z,13.30
2022-12-18T17:50:51.340Z,12.30
2022-12-18T17:53:17.618Z,12.20
2022-12-18T17:55:44.395Z,13.23
2022-12-18T17:58:11.108Z,12.82
2022-12-18T18:00:38.830Z,13.98
2022-12-18T18:03:05.307Z,12.65
2022-12-18T18:05:31.752Z,13.95
2022-12-18T18:07:58.829Z,12.75
2022-12-18T18:10:25.119Z,12.80
2022-12-18T18:13:09.998Z,13.15
2022-12-18T18:15:39.520Z,13.25
2022-12-18T18:18:06.136Z,13.80
2022-12-18T18:20:32.590Z,13.32
2022-12-18T18:22:58.882Z,13.35
2022-12-18T18:25:25.270Z,14.30
2022-12-18T18:27:52.200Z,12.25
2022-12-18T18:30:18.617Z,14.75
2022-12-18T18:32:46.297Z,14.63
2022-12-18T18:35:37.561Z,14.18
2022-12-18T18:37:59.628Z,14.95
2022-12-18T18:40:25.975Z,13.90
2022-12-18T18:42:55.675Z,13.50
2022-12-18T18:45:22.012Z,14.80
2022-12-18T18:47:50.702Z,13.23
2022-12-18T18:50:17.014Z,14.25
2022-12-18T18:52:43.335Z,13.20
2022-12-18T18:55:20.980Z,13.50
2022-12-18T18:57:52.215Z,13.07
2022-12-18T19:00:18.717Z,13.10
2022-12-18T19:02:45.584Z,13.02
2022-12-18T19:05:12.397Z,13.90
2022-12-18T19:07:38.684Z,12.50
2022-12-18T19:10:05.625Z,14.18
2022-12-18T19:12:50.763Z,12.98
2022-12-18T19:15:17.213Z,13.60
2022-12-18T19:17:46.684Z,13.25
2022-12-18T19:20:14.270Z,13.32
2022-12-18T19:22:40.572Z,13.75
2022-12-18T19:25:07.245Z,14.43
2022-12-18T19:27:36.413Z,14.10
2022-12-18T19:30:02.759Z,15.30
2022-12-18T19:32:29.129Z,13.95
2022-12-18T19:34:55.489Z,14.02
2022-12-18T19:37:22.762Z,14.02
2022-12-18T19:39:49.341Z,14.80
2022-12-18T19:42:17.908Z,13.98
2022-12-18T19:44:47.830Z,13.00
2022-12-18T19:47:14.489Z,14.20
2022-12-18T19:49:40.836Z,14.10
2022-12-18T19:52:07.547Z,12.30
2022-12-18T19:54:33.937Z,13.50
2022-12-18T19:57:00.343Z,14.73
2022-12-18T19:59:27.215Z,13.88
2022-12-18T20:01:54.370Z,15.60
2022-12-18T20:04:20.891Z,15.93
2022-12-18T20:06:53.713Z,14.35
2022-12-18T20:09:20.585Z,13.95
2022-12-18T20:11:48.428Z,14.38
2022-12-18T20:14:18.483Z,14.45
2022-12-18T20:16:49.706Z,14.68
2022-12-18T20:19:16.645Z,15.85
2022-12-18T20:21:44.399Z,20.85
2022-12-18T20:24:11.429Z,16.48
2022-12-18T20:26:37.684Z,15.25
2022-12-18T20:29:03.926Z,15.25
2022-12-18T20:31:30.527Z,16.95
2022-12-18T20:33:59.725Z,15.50
2022-12-18T20:36:28.292Z,15.90
2022-12-18T20:38:58.059Z,14.80
2022-12-18T20:41:27.375Z,15.90
2022-12-18T20:44:04.367Z,15.82
2022-12-18T20:46:30.728Z,15.60
2022-12-18T20:48:57.098Z,15.30
2022-12-18T20:51:23.621Z,14.80
2022-12-18T20:53:50.264Z,16.33
2022-12-18T20:56:20.822Z,15.68
2022-12-18T20:58:48.449Z,17.60
2022-12-18T21:01:16.596Z,19.33
2022-12-18T21:03:43.587Z,17.25
2022-12-18T21:06:10.631Z,16.15
2022-12-18T21:08:37.157Z,16.55
2022-12-18T21:11:33.675Z,16.80
2022-12-18T21:16:26.362Z,15.93
2022-12-18T21:18:53.393Z,17.05
2022-12-18T21:21:26.205Z,16.25
2022-12-18T21:23:53.419Z,14.90
2022-12-18T21:26:26.531Z,16.15
2022-12-18T21:28:54.476Z,17.42
2022-12-18T21:31:21.025Z,18.95
2022-12-18T21:33:47.328Z,16.50
2022-12-18T21:36:15.537Z,17.10
2022-12-18T21:38:42.444Z,17.60
2022-12-18T21:41:09.820Z,17.27
2022-12-18T21:43:57.691Z,17.55
2022-12-18T21:46:24.056Z,18.33
2022-12-18T21:48:51.729Z,17.00
2022-12-18T21:51:18.111Z,18.90
2022-12-18T21:53:44.998Z,17.63
2022-12-18T21:56:13.464Z,17.83
2022-12-18T21:58:39.837Z,16.02
2022-12-18T22:01:23.463Z,17.52
2022-12-18T22:03:49.908Z,17.52
2022-12-18T22:06:16.258Z,18.48
2022-12-18T22:08:43.997Z,18.80
2022-12-18T22:11:12.614Z,17.83
2022-12-18T22:13:39.005Z,16.90
2022-12-18T22:16:06.601Z,18.83
2022-12-18T22:18:33.059Z,17.65
2022-12-18T22:21:03.330Z,19.00
2022-12-18T22:23:29.782Z,16.98
2022-12-18T22:25:56.294Z,20.80
2022-12-18T22:28:41.536Z,23.35
2022-12-18T22:31:08.010Z,19.08
2022-12-18T22:33:34.807Z,19.67
2022-12-18T22:36:04.825Z,18.35
2022-12-18T22:38:33.434Z,18.67
2022-12-18T22:40:59.765Z,18.92
2022-12-18T22:43:26.069Z,18.67
2022-12-18T22:45:52.366Z,19.02
2022-12-18T22:48:18.641Z,16.77
2022-12-18T22:50:45.468Z,19.35
2022-12-18T22:53:12.728Z,18.02
2022-12-18T22:55:39.153Z,19.20
2022-12-18T22:58:05.437Z,17.63
2022-12-18T23:00:31.721Z,20.55
2022-12-18T23:03:00.965Z,18.88
2022-12-18T23:05:28.287Z,19.02
2022-12-18T23:07:54.597Z,19.75
2022-12-18T23:10:21.026Z,18.77
2022-12-18T23:12:47.371Z,19.90
2022-12-18T23:15:13.752Z,18.92
2022-12-18T23:17:42.684Z,18.63
2022-12-18T23:20:09.178Z,18.48
2022-12-18T23:22:35.451Z,19.88
2022-12-18T23:25:01.733Z,19.38
2022-12-18T23:27:28.009Z,18.20
2022-12-18T23:29:54.353Z,18.75
2022-12-18T23:32:21.909Z,20.90
2022-12-18T23:34:48.212Z,20.27
2022-12-18T23:37:35.346Z,21.30
2022-12-18T23:40:01.065Z,20.33
2022-12-18T23:42:27.378Z,19.13
2022-12-18T23:44:54.390Z,19.98
2022-12-18T23:47:20.743Z,20.95
2022-12-18T23:49:47.084Z,20.70
2022-12-18T23:52:13.640Z,21.48
2022-12-18T23:54:39.970Z,20.23
2022-12-18T23:57:06.607Z,20.58
2022-12-18T23:59:32.923Z,19.75
